createdAt,value
2022-08-22T00:02:26.741Z,95569.53
2022-08-22T00:02:50.909Z,95535.56
2022-08-22T00:02:54.938Z,95570.06
2022-08-22T00:03:01.344Z,95542.63
2022-08-22T00:03:15.396Z,95565.91
2022-08-22T00:05:02.600Z,95570.94
2022-08-22T00:07:41.692Z,95571.91
2022-08-22T00:10:25.091Z,95571.59
2022-08-22T00:12:58.486Z,95577.97
2022-08-22T00:15:43.471Z,95577.97
2022-08-22T00:18:14.258Z,95572.56
2022-08-22T00:21:01.742Z,95574.78
2022-08-22T00:23:32.414Z,95575.41
2022-08-22T00:26:15.418Z,95569.50
2022-08-22T00:28:48.670Z,95570.16
2022-08-22T00:31:25.693Z,95581.31
2022-08-22T00:34:01.083Z,95575.72
2022-08-22T00:36:31.258Z,95577.16
2022-08-22T00:39:18.582Z,95572.97
2022-08-22T00:41:45.583Z,95576.78
2022-08-22T00:44:22.132Z,95572.00
2022-08-22T00:47:00.953Z,95569.78
2022-08-22T00:49:48.143Z,95568.16
2022-08-22T00:52:16.256Z,95580.13
2022-08-22T00:55:00.580Z,95571.38
2022-08-22T00:57:30.651Z,95568.00
2022-08-22T01:00:13.372Z,95575.03
2022-08-22T01:02:59.390Z,95574.69
2022-08-22T01:05:45.914Z,95577.06
2022-08-22T01:08:23.598Z,95576.91
2022-08-22T01:11:05.962Z,95582.78
2022-08-22T01:13:51.714Z,95577.34
2022-08-22T01:16:28.854Z,95572.25
2022-08-22T01:19:03.352Z,95569.84
2022-08-22T01:21:30.437Z,95573.19
2022-08-22T01:24:16.117Z,95570.59
2022-08-22T01:27:07.831Z,95569.31
2022-08-22T01:29:48.200Z,95567.22
2022-08-22T01:32:21.486Z,95566.91
2022-08-22T01:34:57.042Z,95569.94
2022-08-22T01:37:27.264Z,95568.81
2022-08-22T01:40:13.077Z,95576.16
2022-08-22T01:42:51.331Z,95581.06
2022-08-22T01:45:24.794Z,95566.72
2022-08-22T01:48:05.330Z,95571.66
2022-08-22T01:50:34.801Z,95571.66
2022-08-22T01:53:20.491Z,95570.88
2022-08-22T01:55:53.392Z,95570.88
2022-08-22T01:58:22.249Z,95569.75
2022-08-22T02:01:08.368Z,95574.03
2022-08-22T02:03:40.310Z,95580.28
2022-08-22T02:06:14.648Z,95581.41
2022-08-22T02:09:00.596Z,95572.59
2022-08-22T02:11:31.412Z,95576.72
2022-08-22T02:14:17.222Z,95574.03
2022-08-22T02:16:46.758Z,95567.56
2022-08-22T02:19:14.599Z,95566.47
2022-08-22T02:21:54.085Z,95569.47
2022-08-22T02:24:27.596Z,95566.47
2022-08-22T02:27:05.093Z,95576.34
2022-08-22T02:29:52.491Z,95577.44
2022-08-22T02:32:28.080Z,95578.06
2022-08-22T02:35:01.237Z,95559.72
2022-08-22T02:37:37.585Z,95568.16
2022-08-22T02:40:09.530Z,95567.66
2022-08-22T02:42:48.751Z,95572.56
2022-08-22T02:45:39.000Z,95569.41
2022-08-22T02:48:15.116Z,95560.47
2022-08-22T02:50:59.435Z,95563.78
2022-08-22T02:53:45.124Z,95560.09
2022-08-22T02:56:14.749Z,95558.81
2022-08-22T02:58:47.380Z,95555.28
2022-08-22T03:01:14.913Z,95562.63
2022-08-22T03:03:42.971Z,95571.03
2022-08-22T03:06:28.730Z,95567.66
2022-08-22T03:09:07.790Z,95569.44
2022-08-22T03:11:37.590Z,95568.47
2022-08-22T03:14:07.830Z,95566.06
2022-08-22T03:16:38.282Z,95561.75
2022-08-22T03:19:18.605Z,95565.88
2022-08-22T03:22:02.940Z,95563.78
2022-08-22T03:24:48.901Z,95560.56
2022-08-22T03:27:32.500Z,95563.59
2022-08-22T03:30:10.302Z,95565.00
2022-08-22T03:32:48.720Z,95561.50
2022-08-22T03:35:25.002Z,95564.22
2022-08-22T03:37:54.249Z,95565.81
2022-08-22T03:40:21.551Z,95566.41
2022-08-22T03:43:02.027Z,95564.34
2022-08-22T03:46:07.507Z,95568.03
2022-08-22T03:48:34.870Z,95573.94
2022-08-22T03:51:21.957Z,95570.72
2022-08-22T03:53:56.966Z,95572.94
2022-08-22T03:56:44.924Z,95577.56
2022-08-22T03:59:18.260Z,95577.88
2022-08-22T04:02:01.442Z,95573.06
2022-08-22T04:04:31.756Z,95579.56
2022-08-22T04:07:17.777Z,95584.97
2022-08-22T04:10:13.594Z,95581.81
2022-08-22T04:13:10.040Z,95581.81
2022-08-22T04:15:40.343Z,95583.38
2022-08-22T04:18:25.927Z,95577.19
2022-08-22T04:21:06.147Z,95579.91
2022-08-22T04:23:51.775Z,95581.00
2022-08-22T04:26:29.360Z,95580.19
2022-08-22T04:29:02.375Z,95581.81
2022-08-22T04:31:34.802Z,95585.63
2022-08-22T04:34:10.699Z,95582.59
2022-08-22T04:36:48.173Z,95584.50
2022-08-22T04:39:21.890Z,95596.91
2022-08-22T04:41:51.919Z,95590.41
2022-08-22T04:44:25.409Z,95594.22
2022-08-22T04:46:56.225Z,95601.06
2022-08-22T04:49:33.968Z,95602.31
2022-08-22T04:52:04.132Z,95599.63
2022-08-22T04:54:37.422Z,95601.22
2022-08-22T04:57:10.558Z,95601.22
2022-08-22T04:59:37.686Z,95608.88
2022-08-22T05:02:07.735Z,95605.97
2022-08-22T05:04:38.122Z,95611.66
2022-08-22T05:07:07.114Z,95605.44
2022-08-22T05:09:39.314Z,95606.56
2022-08-22T05:12:09.182Z,95604.66
2022-08-22T05:14:46.434Z,95603.25
2022-08-22T05:17:17.022Z,95616.47
2022-08-22T05:19:50.779Z,95609.84
2022-08-22T05:22:21.704Z,95611.84
2022-08-22T05:24:51.532Z,95620.63
2022-08-22T05:27:24.090Z,95622.00
2022-08-22T05:29:55.171Z,95618.75
2022-08-22T05:32:26.025Z,95624.09
2022-08-22T05:34:55.937Z,95629.59
2022-08-22T05:37:25.986Z,95621.72
2022-08-22T05:39:56.015Z,95622.44
2022-08-22T05:42:26.321Z,95618.66
2022-08-22T05:44:54.754Z,95617.78
2022-08-22T05:47:35.208Z,95624.56
2022-08-22T05:50:05.422Z,95633.41
2022-08-22T05:52:41.753Z,95625.63
2022-08-22T05:55:17.100Z,95628.78
2022-08-22T05:57:47.648Z,95628.66
2022-08-22T06:00:19.152Z,95632.19
2022-08-22T06:03:08.145Z,95629.06
2022-08-22T06:05:39.615Z,95632.59
2022-08-22T06:08:11.858Z,95634.84
2022-08-22T06:10:48.013Z,95635.69
2022-08-22T06:13:47.365Z,95625.28
2022-08-22T06:16:17.313Z,95633.13
2022-08-22T06:18:45.825Z,95631.19
2022-08-22T06:21:22.203Z,95631.81
2022-08-22T06:23:53.135Z,95627.97
2022-08-22T06:26:21.544Z,95635.72
2022-08-22T06:28:55.452Z,95647.22
2022-08-22T06:31:31.940Z,95642.31
2022-08-22T06:34:06.428Z,95646.66
2022-08-22T06:36:35.235Z,95646.59
2022-08-22T06:39:16.954Z,95652.41
2022-08-22T06:42:16.732Z,95643.69
2022-08-22T06:44:50.003Z,95657.38
2022-08-22T06:47:19.832Z,95652.44
2022-08-22T06:49:46.962Z,95650.72
2022-08-22T06:52:22.435Z,95656.81
2022-08-22T06:54:52.742Z,95656.66
2022-08-22T06:57:29.106Z,95654.28
2022-08-22T06:59:57.010Z,95659.50
2022-08-22T07:02:30.089Z,95654.47
2022-08-22T07:04:57.412Z,95647.44
2022-08-22T07:07:26.520Z,95654.75
2022-08-22T07:09:56.455Z,95647.59
2022-08-22T07:12:26.713Z,95651.06
2022-08-22T07:14:57.832Z,95654.38
2022-08-22T07:17:26.501Z,95649.66
2022-08-22T07:20:19.789Z,95642.34
2022-08-22T07:22:55.122Z,95652.78
2022-08-22T07:25:24.306Z,95642.91
2022-08-22T07:28:09.848Z,95647.06
2022-08-22T07:30:50.978Z,95641.34
2022-08-22T07:33:39.159Z,95638.81
2022-08-22T07:36:16.037Z,95638.22
2022-08-22T07:38:46.949Z,95642.41
2022-08-22T07:41:14.111Z,95637.63
2022-08-22T07:43:41.095Z,95635.72
2022-08-22T07:46:21.091Z,95642.41
2022-08-22T07:49:10.290Z,95645.50
2022-08-22T07:51:44.111Z,95642.03
2022-08-22T07:54:17.023Z,95637.56
2022-08-22T07:57:01.388Z,95650.31
2022-08-22T07:59:30.064Z,95641.41
2022-08-22T08:01:59.950Z,95635.56
2022-08-22T08:04:31.927Z,95637.53
2022-08-22T08:07:01.280Z,95644.50
2022-08-22T08:09:30.958Z,95639.44
2022-08-22T08:11:59.656Z,95645.00
2022-08-22T08:14:27.069Z,95640.09
2022-08-22T08:17:02.163Z,95641.97
2022-08-22T08:19:30.775Z,95638.44
2022-08-22T08:21:58.906Z,95638.44
2022-08-22T08:24:36.154Z,95637.53
2022-08-22T08:27:30.629Z,95630.84
2022-08-22T08:29:59.552Z,95635.19
2022-08-22T08:32:30.359Z,95636.09
2022-08-22T08:35:00.621Z,95634.22
2022-08-22T08:37:36.184Z,95639.75
2022-08-22T08:40:08.863Z,95638.31
2022-08-22T08:43:05.797Z,95645.09
2022-08-22T08:45:43.758Z,95643.50
2022-08-22T08:48:25.846Z,95641.53
2022-08-22T08:51:02.015Z,95644.78
2022-08-22T08:53:43.299Z,95634.84
2022-08-22T08:56:25.402Z,95634.69
2022-08-22T08:59:00.234Z,95629.66
2022-08-22T09:01:31.043Z,95637.78
2022-08-22T09:03:58.120Z,95631.47
2022-08-22T09:06:42.381Z,95630.88
2022-08-22T09:09:28.723Z,95636.09
2022-08-22T09:12:05.431Z,95638.78
2022-08-22T09:14:41.611Z,95644.56
2022-08-22T09:17:11.484Z,95644.38
2022-08-22T09:19:55.943Z,95641.81
2022-08-22T09:22:49.856Z,95637.63
2022-08-22T09:25:36.710Z,95649.94
2022-08-22T09:28:17.091Z,95636.09
2022-08-22T09:30:54.028Z,95636.59
2022-08-22T09:33:24.728Z,95635.81
2022-08-22T09:36:05.375Z,95632.63
2022-08-22T09:38:32.681Z,95635.78
2022-08-22T09:41:21.368Z,95638.09
2022-08-22T09:43:52.806Z,95638.22
2022-08-22T09:46:31.443Z,95646.31
2022-08-22T09:49:10.301Z,95643.31
2022-08-22T09:51:44.908Z,95642.41
2022-08-22T09:54:19.532Z,95642.75
2022-08-22T09:56:47.194Z,95631.72
2022-08-22T09:59:21.957Z,95639.34
2022-08-22T10:01:49.016Z,95639.41
2022-08-22T10:04:38.895Z,95644.03
2022-08-22T10:07:15.620Z,95638.63
2022-08-22T10:09:49.510Z,95637.00
2022-08-22T10:12:30.534Z,95635.75
2022-08-22T10:15:06.912Z,95637.16
2022-08-22T10:17:41.313Z,95636.22
2022-08-22T10:20:14.285Z,95642.50
2022-08-22T10:22:47.349Z,95639.59
2022-08-22T10:25:18.444Z,95637.47
2022-08-22T10:27:53.330Z,95633.00
2022-08-22T10:30:25.634Z,95631.84
2022-08-22T10:33:08.873Z,95630.25
2022-08-22T10:35:48.408Z,95629.38
2022-08-22T10:38:25.260Z,95639.16
2022-08-22T10:41:11.316Z,95634.75
2022-08-22T10:43:41.712Z,95632.19
2022-08-22T10:46:16.574Z,95631.03
2022-08-22T10:48:56.972Z,95637.03
2022-08-22T10:51:43.351Z,95634.75
2022-08-22T10:54:20.087Z,95628.28
2022-08-22T10:56:51.544Z,95632.19
2022-08-22T10:59:29.245Z,95643.25
2022-08-22T11:02:14.832Z,95648.09
2022-08-22T11:05:02.729Z,95635.19
2022-08-22T11:07:48.943Z,95652.00
2022-08-22T11:10:21.515Z,95642.97
2022-08-22T11:12:58.708Z,95629.94
2022-08-22T11:15:45.086Z,95633.38
2022-08-22T11:18:20.520Z,95633.41
2022-08-22T11:21:09.122Z,95635.31
2022-08-22T11:24:02.509Z,95628.22
2022-08-22T11:26:47.819Z,95617.25
2022-08-22T11:29:29.084Z,95633.25
2022-08-22T11:32:15.015Z,95622.72
2022-08-22T11:34:45.042Z,95615.63
2022-08-22T11:37:43.432Z,95623.53
2022-08-22T11:40:11.872Z,95629.38
2022-08-22T11:43:18.229Z,95630.31
2022-08-22T11:45:48.162Z,95613.97
2022-08-22T11:48:16.211Z,95609.25
2022-08-22T11:50:55.627Z,95603.63
2022-08-22T11:53:25.524Z,95603.19
2022-08-22T11:55:59.113Z,95610.56
2022-08-22T11:58:36.765Z,95592.13
2022-08-22T12:01:26.229Z,95599.25
2022-08-22T12:04:09.849Z,95604.28
2022-08-22T12:06:41.638Z,95596.03
2022-08-22T12:09:23.037Z,95592.41
2022-08-22T12:11:50.153Z,95598.78
2022-08-22T12:14:22.202Z,95584.13
2022-08-22T12:17:00.621Z,95588.34
2022-08-22T12:20:12.810Z,95591.72
2022-08-22T12:22:39.352Z,95586.22
2022-08-22T12:25:19.010Z,95585.25
2022-08-22T12:27:53.891Z,95579.78
2022-08-22T12:30:35.642Z,95587.66
2022-08-22T12:33:22.870Z,95587.75
2022-08-22T12:35:55.526Z,95586.44
2022-08-22T12:38:35.969Z,95583.56
2022-08-22T12:41:40.313Z,95578.72
2022-08-22T12:44:39.858Z,95581.69
2022-08-22T12:47:06.991Z,95578.50
2022-08-22T12:49:49.757Z,95572.56
2022-08-22T12:52:30.879Z,95571.81
2022-08-22T12:55:19.014Z,95569.81
2022-08-22T12:58:08.968Z,95558.72
2022-08-22T13:00:40.272Z,95564.59
2022-08-22T13:03:11.506Z,95569.28
2022-08-22T13:05:40.819Z,95553.59
2022-08-22T13:08:21.017Z,95563.41
2022-08-22T13:10:56.286Z,95563.22
2022-08-22T13:13:38.600Z,95558.00
2022-08-22T13:16:11.667Z,95546.78
2022-08-22T13:19:07.474Z,95561.97
2022-08-22T13:21:38.316Z,95549.19
2022-08-22T13:24:22.552Z,95543.00
2022-08-22T13:27:06.900Z,95532.63
2022-08-22T13:29:53.279Z,95545.09
2022-08-22T13:32:23.965Z,95544.69
2022-08-22T13:34:55.677Z,95543.00
2022-08-22T13:37:25.899Z,95535.78
2022-08-22T13:39:55.791Z,95541.41
2022-08-22T13:42:30.175Z,95544.81
2022-08-22T13:44:59.650Z,95538.19
2022-08-22T13:47:32.339Z,95538.09
2022-08-22T13:50:11.666Z,95533.63
2022-08-22T13:52:43.791Z,95538.66
2022-08-22T13:55:20.015Z,95542.78
2022-08-22T13:57:53.793Z,95536.38
2022-08-22T14:00:41.079Z,95540.63
2022-08-22T14:03:40.350Z,95534.41
2022-08-22T14:06:35.271Z,95541.59
2022-08-22T14:09:09.337Z,95533.75
2022-08-22T14:11:42.770Z,95532.81
2022-08-22T14:14:10.143Z,95540.97
2022-08-22T14:16:40.396Z,95535.72
2022-08-22T14:19:14.063Z,95533.94
2022-08-22T14:21:47.044Z,95535.56
2022-08-22T14:24:25.445Z,95529.97
2022-08-22T14:27:00.070Z,95537.78
2022-08-22T14:29:42.139Z,95539.31
2022-08-22T14:32:35.328Z,95544.69
2022-08-22T14:35:29.300Z,95538.31
2022-08-22T14:38:19.421Z,95529.84
2022-08-22T14:40:51.901Z,95532.59
2022-08-22T14:43:29.527Z,95521.56
2022-08-22T14:46:06.291Z,95524.00
2022-08-22T14:48:46.144Z,95534.19
2022-08-22T14:51:21.409Z,95525.81
2022-08-22T14:53:50.100Z,95531.13
2022-08-22T14:56:24.852Z,95525.34
2022-08-22T14:58:55.985Z,95537.22
2022-08-22T15:01:25.062Z,95525.28
2022-08-22T15:03:59.655Z,95530.63
2022-08-22T15:06:48.099Z,95528.56
2022-08-22T15:09:24.725Z,95536.78
2022-08-22T15:11:53.388Z,95533.53
2022-08-22T15:14:25.797Z,95534.97
2022-08-22T15:16:54.598Z,95533.03
2022-08-22T15:19:41.182Z,95529.63
2022-08-22T15:22:14.822Z,95539.16
2022-08-22T15:24:56.365Z,95528.47
2022-08-22T15:27:25.281Z,95529.88
2022-08-22T15:29:57.228Z,95533.94
2022-08-22T15:32:29.146Z,95533.34
2022-08-22T15:35:07.978Z,95535.66
2022-08-22T15:37:52.300Z,95530.19
2022-08-22T15:40:40.503Z,95531.13
2022-08-22T15:43:13.523Z,95531.44
2022-08-22T15:45:45.639Z,95533.81
2022-08-22T15:48:25.852Z,95536.78
2022-08-22T15:50:58.919Z,95530.44
2022-08-22T15:53:33.740Z,95531.28
2022-08-22T15:56:13.935Z,95530.00
2022-08-22T15:58:49.510Z,95525.59
2022-08-22T16:01:20.483Z,95523.31
2022-08-22T16:04:12.354Z,95519.78
2022-08-22T16:06:45.356Z,95516.94
2022-08-22T16:09:29.073Z,95521.97
2022-08-22T16:11:57.389Z,95515.28
2022-08-22T16:14:45.223Z,95518.66
2022-08-22T16:17:27.766Z,95515.66
2022-08-22T16:20:10.009Z,95523.97
2022-08-22T16:23:10.057Z,95519.72
2022-08-22T16:25:46.728Z,95522.31
2022-08-22T16:28:54.215Z,95513.53
2022-08-22T16:31:17.132Z,95518.63
2022-08-22T16:33:44.800Z,95522.16
2022-08-22T16:36:21.130Z,95522.06
2022-08-22T16:38:50.785Z,95521.63
2022-08-22T16:41:29.818Z,95518.63
2022-08-22T16:44:32.265Z,95512.00
2022-08-22T16:47:11.084Z,95519.34
2022-08-22T16:49:50.060Z,95519.22
2022-08-22T16:52:23.221Z,95524.19
2022-08-22T16:55:00.954Z,95520.31
2022-08-22T16:57:38.694Z,95527.59
2022-08-22T17:00:22.752Z,95527.19
2022-08-22T17:02:50.269Z,95519.78
2022-08-22T17:05:20.090Z,95523.31
2022-08-22T17:07:47.090Z,95526.47
2022-08-22T17:10:36.020Z,95527.19
2022-08-22T17:13:09.007Z,95526.03
2022-08-22T17:15:55.036Z,95523.31
2022-08-22T17:18:31.355Z,95525.47
2022-08-22T17:20:58.385Z,95532.34
2022-08-22T17:23:45.946Z,95530.69
2022-08-22T17:26:22.228Z,95527.75
2022-08-22T17:28:55.357Z,95525.81
2022-08-22T17:31:36.720Z,95534.09
2022-08-22T17:34:16.298Z,95541.84
2022-08-22T17:36:53.044Z,95539.56
2022-08-22T17:39:29.101Z,95537.19
2022-08-22T17:42:35.391Z,95543.91
2022-08-22T17:45:25.710Z,95544.25
2022-08-22T17:48:05.336Z,95543.69
2022-08-22T17:50:38.204Z,95541.31
2022-08-22T17:53:12.361Z,95546.31
2022-08-22T17:56:22.466Z,95544.19
2022-08-22T17:59:00.864Z,95556.53
2022-08-22T18:01:49.152Z,95553.41
2022-08-22T18:04:21.044Z,95561.50
2022-08-22T18:06:56.194Z,95562.56
2022-08-22T18:09:31.015Z,95562.56
2022-08-22T18:11:58.102Z,95571.66
2022-08-22T18:14:36.552Z,95568.59
2022-08-22T18:17:13.422Z,95570.88
2022-08-22T18:19:59.291Z,95577.34
2022-08-22T18:22:37.201Z,95580.78
2022-08-22T18:25:16.608Z,95576.78
2022-08-22T18:27:43.660Z,95583.72
2022-08-22T18:30:13.518Z,95592.66
2022-08-22T18:32:47.137Z,95590.28
2022-08-22T18:35:17.010Z,95591.19
2022-08-22T18:37:49.415Z,95596.56
2022-08-22T18:40:22.558Z,95596.88
2022-08-22T18:42:55.499Z,95608.69
2022-08-22T18:45:44.106Z,95605.03
2022-08-22T18:48:22.432Z,95605.81
2022-08-22T18:50:49.732Z,95606.16
2022-08-22T18:53:37.248Z,95602.63
2022-08-22T18:56:28.431Z,95615.28
2022-08-22T18:59:05.069Z,95614.34
2022-08-22T19:01:47.401Z,95619.34
2022-08-22T19:04:25.517Z,95625.00
2022-08-22T19:07:18.357Z,95625.88
2022-08-22T19:09:58.709Z,95629.97
2022-08-22T19:12:36.380Z,95626.75
2022-08-22T19:15:06.467Z,95626.31
2022-08-22T19:17:58.797Z,95643.00
2022-08-22T19:20:49.780Z,95625.72
2022-08-22T19:23:32.120Z,95636.84
2022-08-22T19:26:17.740Z,95635.59
2022-08-22T19:28:45.063Z,95636.91
2022-08-22T19:31:23.510Z,95644.00
2022-08-22T19:34:09.426Z,95636.59
2022-08-22T19:36:36.500Z,95640.03
2022-08-22T19:39:14.734Z,95645.47
2022-08-22T19:41:45.284Z,95641.94
2022-08-22T19:44:32.675Z,95644.09
2022-08-22T19:47:08.859Z,95651.78
2022-08-22T19:49:37.566Z,95645.00
2022-08-22T19:52:21.164Z,95640.59
2022-08-22T19:54:54.283Z,95645.78
2022-08-22T19:57:44.634Z,95646.59
2022-08-22T20:00:20.572Z,95646.59
2022-08-22T20:02:55.488Z,95647.22
2022-08-22T20:05:29.618Z,95644.84
2022-08-22T20:08:09.285Z,95645.63
2022-08-22T20:10:36.320Z,95650.59
2022-08-22T20:13:05.040Z,95648.56
2022-08-22T20:15:33.868Z,95645.69
2022-08-22T20:20:56.427Z,95646.34
2022-08-22T20:23:26.776Z,95643.47
2022-08-22T20:25:55.940Z,95643.34
2022-08-22T20:28:35.903Z,95640.78
2022-08-22T20:31:05.711Z,95640.66
2022-08-22T20:33:34.917Z,95637.47
2022-08-22T20:36:05.170Z,95635.75
2022-08-22T20:38:35.613Z,95633.50
2022-08-22T20:41:21.354Z,95638.94
2022-08-22T20:43:54.194Z,95630.31
2022-08-22T20:46:39.395Z,95628.56
2022-08-22T20:49:18.584Z,95630.81
2022-08-22T20:51:53.836Z,95626.22
2022-08-22T20:54:23.986Z,95625.91
2022-08-22T20:56:59.955Z,95628.66
2022-08-22T20:59:30.133Z,95631.91
2022-08-22T21:02:03.053Z,95632.88
2022-08-22T21:04:42.061Z,95629.19
2022-08-22T21:07:09.929Z,95625.06
2022-08-22T21:09:55.671Z,95625.53
2022-08-22T21:12:24.120Z,95621.34
2022-08-22T21:14:51.168Z,95616.91
2022-08-22T21:17:19.657Z,95626.19
2022-08-22T21:19:46.805Z,95627.00
2022-08-22T21:22:15.433Z,95622.53
2022-08-22T21:24:42.507Z,95623.97
2022-08-22T21:27:14.402Z,95619.69
2022-08-22T21:29:46.327Z,95615.38
2022-08-22T21:32:13.390Z,95620.97
2022-08-22T21:34:44.877Z,95626.09
2022-08-22T21:37:16.776Z,95621.47
2022-08-22T21:39:46.514Z,95626.88
2022-08-22T21:42:25.132Z,95628.50
2022-08-22T21:44:56.930Z,95623.19
2022-08-22T21:47:30.671Z,95621.28
2022-08-22T21:50:04.802Z,95622.09
2022-08-22T21:52:33.689Z,95621.94
2022-08-22T21:55:12.887Z,95615.41
2022-08-22T21:57:40.013Z,95616.66
2022-08-22T22:00:13.018Z,95620.97
2022-08-22T22:02:41.491Z,95619.84
2022-08-22T22:05:12.901Z,95613.47
2022-08-22T22:07:41.426Z,95621.13
2022-08-22T22:10:10.033Z,95626.56
2022-08-22T22:12:44.524Z,95616.03
2022-08-22T22:15:13.735Z,95617.75
2022-08-22T22:17:40.889Z,95620.00
2022-08-22T22:20:08.912Z,95625.28
2022-08-22T22:22:37.034Z,95626.69
2022-08-22T22:25:39.855Z,95623.19
2022-08-22T22:27:58.656Z,95628.78
2022-08-22T22:30:25.982Z,95633.25
2022-08-22T22:32:53.141Z,95637.19
2022-08-22T22:35:22.068Z,95634.66
2022-08-22T22:37:49.124Z,95637.97
2022-08-22T22:40:16.323Z,95633.78
2022-08-22T22:42:43.375Z,95633.94
2022-08-22T22:45:10.807Z,95633.56
2022-08-22T22:47:37.954Z,95634.78
2022-08-22T22:50:05.543Z,95627.63
2022-08-22T22:52:32.661Z,95631.91
2022-08-22T22:54:59.738Z,95634.44
2022-08-22T22:57:26.789Z,95634.28
2022-08-22T22:59:55.912Z,95634.41
2022-08-22T23:02:23.516Z,95624.19
2022-08-22T23:04:52.762Z,95622.59
2022-08-22T23:07:20.360Z,95629.41
2022-08-22T23:09:47.450Z,95637.25
2022-08-22T23:12:14.805Z,95631.31
2022-08-22T23:14:41.960Z,95633.88
2022-08-22T23:17:09.142Z,95628.56
2022-08-22T23:19:38.689Z,95633.53
2022-08-22T23:22:06.744Z,95635.53
2022-08-22T23:24:34.306Z,95642.22
2022-08-22T23:27:01.470Z,95639.03
2022-08-22T23:29:28.557Z,95646.81
2022-08-22T23:31:59.144Z,95646.81
2022-08-22T23:34:31.022Z,95639.19
2022-08-22T23:36:59.167Z,95637.59
2022-08-22T23:39:27.283Z,95639.03
2022-08-22T23:41:54.614Z,95634.81
2022-08-22T23:44:23.237Z,95638.47
2022-08-22T23:46:50.323Z,95639.41
2022-08-22T23:49:17.836Z,95638.59
2022-08-22T23:51:45.116Z,95632.09
2022-08-22T23:54:12.189Z,95632.69
2022-08-22T23:56:41.901Z,95637.13
2022-08-22T23:59:11.601Z,95631.78
